Time;durP1;ratioP1;P1;durP2;ratioP2;P2;SDS_P1;SDS_P2;PMS_P1;PMS_P2;Temp;Humidity;BMP_temperature;BMP_pressure;BME280_temperature;BME280_humidity;BME280_pressure;Samples;Min_cycle;Max_cycle;Signal;HPM_P1;HPM_P2
2021/01/12 00:00:22;;;;;;;20.23;15.63;;;6.40;99.90;;;;;;5078735;28;20415;-76
2021/01/12 00:02:50;;;;;;;19.87;15.17;;;6.20;99.90;;;;;;5098326;28;21096;-76
2021/01/12 00:05:17;;;;;;;21.30;15.90;;;6.30;99.90;;;;;;5090092;28;20454;-77
2021/01/12 00:07:42;;;;;;;18.13;13.83;;;6.20;99.90;;;;;;5067365;28;20515;-76
2021/01/12 00:10:09;;;;;;;20.30;16.60;;;6.30;99.90;;;;;;5085326;28;21122;-76
2021/01/12 00:12:37;;;;;;;23.00;15.83;;;6.20;99.90;;;;;;5093123;28;20654;-76
2021/01/12 00:15:04;;;;;;;20.60;15.50;;;6.20;99.90;;;;;;5093553;28;20429;-76
2021/01/12 00:17:30;;;;;;;20.50;16.03;;;6.00;99.90;;;;;;5086413;28;20565;-76
2021/01/12 00:19:56;;;;;;;22.03;15.37;;;6.10;99.90;;;;;;5086717;28;20748;-76
2021/01/12 00:22:22;;;;;;;19.97;14.43;;;6.40;99.90;;;;;;5086469;28;20452;-76
2021/01/12 00:24:49;;;;;;;19.43;14.53;;;6.20;99.90;;;;;;5084758;28;20540;-76
2021/01/12 00:27:17;;;;;;;18.30;14.27;;;6.00;99.90;;;;;;5088769;28;20773;-76
2021/01/12 00:29:46;;;;;;;21.80;16.37;;;6.00;99.90;;;;;;5096121;28;20483;-76
2021/01/12 00:32:17;;;;;;;19.90;14.83;;;6.10;99.90;;;;;;5084176;28;20426;-76
2021/01/12 00:34:43;;;;;;;21.60;16.40;;;6.00;99.90;;;;;;5084670;28;20416;-76
2021/01/12 00:37:09;;;;;;;21.07;15.97;;;6.10;99.90;;;;;;5085024;28;20513;-77
2021/01/12 00:39:34;;;;;;;18.80;15.13;;;6.40;99.90;;;;;;5068766;28;20196;-76
2021/01/12 00:42:00;;;;;;;19.37;14.90;;;6.10;99.90;;;;;;5086375;28;20180;-76
2021/01/12 00:44:27;;;;;;;19.63;15.47;;;6.30;99.90;;;;;;5094859;28;20176;-76
2021/01/12 00:46:53;;;;;;;17.07;14.73;;;6.00;99.90;;;;;;5090547;28;20563;-76
2021/01/12 00:49:23;;;;;;;21.67;15.20;;;6.20;99.90;;;;;;5085008;28;20493;-77
2021/01/12 00:51:49;;;;;;;18.93;13.77;;;6.00;99.90;;;;;;5084825;28;20437;-76
2021/01/12 00:54:21;;;;;;;22.10;16.03;;;6.20;99.90;;;;;;5067576;28;20419;-76
2021/01/12 00:56:51;;;;;;;18.43;14.10;;;6.10;99.90;;;;;;5086577;28;20446;-76
2021/01/12 00:59:19;;;;;;;16.50;12.90;;;6.20;99.90;;;;;;5099542;28;20445;-76
2021/01/12 01:01:45;;;;;;;22.33;14.70;;;6.30;99.90;;;;;;5071173;28;20989;-76
2021/01/12 01:04:13;;;;;;;19.93;15.43;;;6.10;99.90;;;;;;5071817;28;20483;-77
2021/01/12 01:06:40;;;;;;;21.47;14.73;;;6.20;99.90;;;;;;5090548;28;20448;-76
2021/01/12 01:09:06;;;;;;;19.20;14.33;;;6.20;99.90;;;;;;5072124;28;20488;-76
2021/01/12 01:11:31;;;;;;;18.50;14.00;;;6.40;99.90;;;;;;5088929;28;20434;-77
2021/01/12 01:13:58;;;;;;;17.90;13.07;;;6.10;99.90;;;;;;5096750;28;20233;-76
2021/01/12 01:16:34;;;;;;;17.00;13.00;;;6.30;99.90;;;;;;5071479;28;20216;-76
2021/01/12 01:19:03;;;;;;;18.20;13.40;;;6.10;99.90;;;;;;5080474;28;20429;-76
2021/01/12 01:21:29;;;;;;;19.40;14.50;;;6.30;99.90;;;;;;5068651;28;20434;-76
2021/01/12 01:23:54;;;;;;;20.50;13.97;;;6.20;99.90;;;;;;5063590;28;20785;-76
2021/01/12 01:26:21;;;;;;;16.30;12.70;;;6.10;99.90;;;;;;5088580;28;20188;-76
2021/01/12 01:28:48;;;;;;;14.60;11.70;;;6.50;99.90;;;;;;5093697;28;20253;-77
2021/01/12 01:31:14;;;;;;;16.63;12.17;;;6.30;99.90;;;;;;5096435;28;20458;-76
2021/01/12 01:33:40;;;;;;;15.50;12.30;;;6.00;99.90;;;;;;5089583;28;20509;-76
2021/01/12 01:36:09;;;;;;;17.20;13.30;;;6.30;99.90;;;;;;5089685;28;21020;-76
2021/01/12 01:38:35;;;;;;;15.47;12.33;;;6.20;99.90;;;;;;5088611;28;20390;-76
2021/01/12 01:41:05;;;;;;;16.33;12.57;;;6.20;99.90;;;;;;5071197;28;20479;-76
2021/01/12 01:43:36;;;;;;;15.43;12.53;;;6.20;99.90;;;;;;5072329;28;20200;-76
2021/01/12 01:46:05;;;;;;;16.70;12.30;;;6.10;99.90;;;;;;5084170;28;20414;-76
2021/01/12 01:48:32;;;;;;;17.20;12.73;;;6.20;99.90;;;;;;5090699;28;20469;-76
2021/01/12 01:51:04;;;;;;;16.10;11.90;;;6.20;99.90;;;;;;5071367;28;20505;-76
2021/01/12 01:53:37;;;;;;;14.93;11.17;;;6.20;99.90;;;;;;5087518;28;20543;-76
2021/01/12 01:56:06;;;;;;;15.30;11.60;;;6.20;99.90;;;;;;5070977;28;20422;-76
2021/01/12 01:58:42;;;;;;;12.20;10.63;;;6.10;99.90;;;;;;5089494;28;20457;-76
2021/01/12 02:01:08;;;;;;;13.97;11.03;;;6.30;99.90;;;;;;5101111;28;20416;-76
2021/01/12 02:03:55;;;;;;;13.50;10.30;;;6.10;99.90;;;;;;5071890;28;20954;-76
2021/01/12 02:06:32;;;;;;;11.87;9.10;;;6.20;99.90;;;;;;5087871;28;20450;-76
2021/01/12 02:09:23;;;;;;;11.77;9.23;;;6.30;99.90;;;;;;5089591;28;20465;-76
2021/01/12 02:11:56;;;;;;;11.87;8.47;;;6.10;99.90;;;;;;5088941;28;20423;-76
2021/01/12 02:14:25;;;;;;;10.53;8.60;;;6.20;99.90;;;;;;5071022;28;21084;-76
2021/01/12 02:16:56;;;;;;;11.50;9.37;;;5.90;99.90;;;;;;5070337;28;20428;-76
2021/01/12 02:19:25;;;;;;;9.60;8.40;;;6.30;99.90;;;;;;5087765;28;20522;-76
2021/01/12 02:21:58;;;;;;;11.07;8.33;;;6.30;99.90;;;;;;5071200;28;20430;-76
2021/01/12 02:24:23;;;;;;;9.83;8.10;;;6.20;99.90;;;;;;5087003;28;20465;-76
2021/01/12 02:26:49;;;;;;;11.33;8.90;;;6.20;99.90;;;;;;5070626;28;20430;-76
2021/01/12 02:29:15;;;;;;;10.73;8.33;;;6.10;99.90;;;;;;5088030;28;20947;-76
2021/01/12 02:31:41;;;;;;;10.30;7.93;;;6.20;99.90;;;;;;5092578;28;20187;-76
2021/01/12 02:34:11;;;;;;;10.23;8.10;;;6.00;99.90;;;;;;5088159;28;20220;-76
2021/01/12 02:36:37;;;;;;;14.27;9.87;;;6.10;99.90;;;;;;5087381;28;20279;-76
2021/01/12 02:39:04;;;;;;;11.27;9.47;;;6.20;99.90;;;;;;5054015;28;20427;-76
2021/01/12 02:41:32;;;;;;;10.90;8.73;;;6.20;99.90;;;;;;5087288;28;20436;-76
2021/01/12 02:43:59;;;;;;;10.60;8.90;;;6.20;99.90;;;;;;5070719;28;20940;-75
2021/01/12 02:46:25;;;;;;;13.43;9.80;;;6.00;99.90;;;;;;5081976;28;20422;-76
2021/01/12 02:48:51;;;;;;;11.57;9.60;;;6.10;99.90;;;;;;5070313;28;20470;-76
2021/01/12 02:51:17;;;;;;;10.23;8.27;;;5.90;99.90;;;;;;5087288;28;20506;-76
2021/01/12 02:53:42;;;;;;;12.50;9.47;;;6.30;99.90;;;;;;5069363;28;20514;-76
2021/01/12 02:56:08;;;;;;;11.80;8.97;;;6.10;99.90;;;;;;5087027;28;20215;-76
2021/01/12 02:58:34;;;;;;;10.90;8.70;;;6.30;99.90;;;;;;5088265;28;20890;-76
2021/01/12 03:01:02;;;;;;;10.97;8.40;;;6.20;99.90;;;;;;5098166;28;20182;-76
2021/01/12 03:03:28;;;;;;;10.90;8.53;;;6.10;99.90;;;;;;5088312;28;20185;-76
2021/01/12 03:05:54;;;;;;;11.13;8.60;;;6.20;99.90;;;;;;5069874;28;20513;-76
2021/01/12 03:08:20;;;;;;;9.13;7.77;;;6.00;99.90;;;;;;5066161;28;20193;-76
2021/01/12 03:10:46;;;;;;;10.20;7.90;;;6.30;99.90;;;;;;5050201;28;20221;-76
2021/01/12 03:13:12;;;;;;;8.23;6.87;;;6.20;99.90;;;;;;5066138;28;20696;-76
2021/01/12 03:15:39;;;;;;;7.10;6.13;;;6.10;99.90;;;;;;5090832;28;20928;-76
2021/01/12 03:18:06;;;;;;;7.97;6.80;;;6.10;99.90;;;;;;5095370;28;20422;-76
2021/01/12 03:20:32;;;;;;;8.50;6.70;;;6.10;99.90;;;;;;5086890;28;20506;-76
2021/01/12 03:22:58;;;;;;;8.97;7.17;;;6.20;99.90;;;;;;5086872;28;20513;-76
2021/01/12 03:25:24;;;;;;;7.33;6.57;;;6.00;99.90;;;;;;5086200;28;20526;-76
2021/01/12 03:27:49;;;;;;;6.93;5.60;;;6.20;99.90;;;;;;5069907;28;20241;-76
2021/01/12 03:30:16;;;;;;;6.83;6.07;;;6.20;99.90;;;;;;5092437;28;20761;-76
2021/01/12 03:32:42;;;;;;;13.07;6.00;;;6.30;99.90;;;;;;5076969;28;20413;-75
2021/01/12 03:35:09;;;;;;;6.47;5.20;;;6.20;99.90;;;;;;5052068;28;20488;-76
2021/01/12 03:37:35;;;;;;;5.37;4.87;;;6.30;99.90;;;;;;5069062;28;20430;-76
2021/01/12 03:40:02;;;;;;;6.53;5.40;;;6.30;99.90;;;;;;5087368;28;20446;-76
2021/01/12 03:42:28;;;;;;;7.10;6.40;;;6.20;99.90;;;;;;5086126;28;21014;-76
2021/01/12 03:44:54;;;;;;;10.73;6.10;;;6.20;99.90;;;;;;5090742;28;20461;-76
2021/01/12 03:47:20;;;;;;;7.83;5.80;;;6.10;99.90;;;;;;5096174;28;20601;-76
2021/01/12 03:49:46;;;;;;;5.53;5.03;;;6.20;99.90;;;;;;5065640;28;20221;-75
2021/01/12 03:52:11;;;;;;;6.27;5.67;;;6.30;99.90;;;;;;5084145;28;20192;-76
2021/01/12 03:54:37;;;;;;;5.80;4.87;;;6.20;99.90;;;;;;5086623;28;20510;-76
2021/01/12 03:57:06;;;;;;;6.20;5.23;;;6.00;99.90;;;;;;5068912;28;20200;-76
2021/01/12 03:59:31;;;;;;;6.43;5.07;;;6.40;99.90;;;;;;5054265;28;20268;-76
2021/01/12 04:01:57;;;;;;;5.87;4.90;;;6.20;99.90;;;;;;5078678;28;20434;-76
2021/01/12 04:04:23;;;;;;;5.30;4.53;;;6.40;99.90;;;;;;5086459;28;20193;-76
2021/01/12 04:06:49;;;;;;;5.00;4.40;;;6.30;99.90;;;;;;5051624;28;20518;-76
2021/01/12 04:09:14;;;;;;;5.60;5.10;;;6.10;99.90;;;;;;5087119;28;20226;-76
2021/01/12 04:11:40;;;;;;;5.70;4.57;;;6.20;99.90;;;;;;5085535;28;20419;-76
2021/01/12 04:14:09;;;;;;;4.93;4.43;;;6.30;99.90;;;;;;5084769;28;20184;-75
2021/01/12 04:16:34;;;;;;;5.40;4.90;;;6.40;99.90;;;;;;5088041;28;20616;-76
2021/01/12 04:19:00;;;;;;;4.73;4.30;;;6.30;99.90;;;;;;5056130;28;20882;-76
2021/01/12 04:21:26;;;;;;;4.13;3.73;;;6.20;99.90;;;;;;5083637;28;20306;-76
2021/01/12 04:23:52;;;;;;;4.07;3.67;;;6.30;99.90;;;;;;5084850;28;20188;-76
2021/01/12 04:26:18;;;;;;;4.80;4.33;;;6.30;99.90;;;;;;5068363;28;20973;-76
2021/01/12 04:28:44;;;;;;;4.30;3.90;;;6.30;99.90;;;;;;5067302;28;20507;-76
2021/01/12 04:31:10;;;;;;;4.40;4.00;;;6.60;99.90;;;;;;5087037;28;20455;-76
2021/01/12 04:33:36;;;;;;;4.53;3.80;;;6.60;99.90;;;;;;5094901;28;20418;-76
2021/01/12 04:36:05;;;;;;;5.33;3.90;;;6.50;99.90;;;;;;5085334;28;20208;-76
2021/01/12 04:38:33;;;;;;;4.23;3.83;;;6.50;99.90;;;;;;5086671;28;20352;-76
2021/01/12 04:40:59;;;;;;;3.80;3.10;;;6.40;99.90;;;;;;5068860;28;20426;-76
2021/01/12 04:43:25;;;;;;;4.00;3.60;;;6.40;99.90;;;;;;5085701;28;20889;-76
2021/01/12 04:45:51;;;;;;;4.20;3.80;;;6.50;99.90;;;;;;5090155;28;20425;-76
2021/01/12 04:48:16;;;;;;;4.13;3.63;;;6.50;99.90;;;;;;5075021;28;20231;-76
2021/01/12 04:50:42;;;;;;;4.00;3.60;;;6.60;99.90;;;;;;5071322;28;20491;-76
2021/01/12 04:53:08;;;;;;;3.53;3.23;;;6.70;99.90;;;;;;5067394;28;20188;-76
2021/01/12 04:55:34;;;;;;;3.47;3.17;;;6.60;99.90;;;;;;5086227;28;20422;-76
2021/01/12 04:57:59;;;;;;;4.70;3.30;;;6.70;99.90;;;;;;5086181;28;20197;-76
2021/01/12 05:00:32;;;;;;;3.77;3.47;;;6.60;99.90;;;;;;5054321;28;20806;-76
2021/01/12 05:03:08;;;;;;;4.50;3.57;;;6.60;99.90;;;;;;5077288;28;20176;-76
2021/01/12 05:05:35;;;;;;;3.60;3.27;;;6.70;99.90;;;;;;5086356;28;20838;-76
2021/01/12 05:08:17;;;;;;;3.50;3.20;;;6.60;99.90;;;;;;5067894;28;20423;-76
2021/01/12 05:10:49;;;;;;;3.80;3.33;;;6.60;99.90;;;;;;5084998;28;20462;-76
2021/01/12 05:13:20;;;;;;;4.07;3.67;;;6.80;99.90;;;;;;5085312;28;20418;-76
2021/01/12 05:15:54;;;;;;;3.20;2.90;;;6.90;99.90;;;;;;5093272;28;20426;-76
2021/01/12 05:18:23;;;;;;;3.20;2.90;;;6.70;99.90;;;;;;5076724;28;20421;-76
2021/01/12 05:20:50;;;;;;;2.70;2.50;;;6.60;99.90;;;;;;5085007;28;20509;-76
2021/01/12 05:23:23;;;;;;;3.53;3.23;;;6.80;99.90;;;;;;5085257;28;20487;-76
2021/01/12 05:25:54;;;;;;;3.83;3.43;;;6.90;99.90;;;;;;5068060;28;20410;-76
2021/01/12 05:28:20;;;;;;;3.80;2.87;;;6.60;99.90;;;;;;5086538;28;20819;-76
2021/01/12 05:30:47;;;;;;;3.87;2.77;;;6.80;99.90;;;;;;5069268;28;20458;-76
2021/01/12 05:33:20;;;;;;;3.30;2.80;;;6.90;99.90;;;;;;5098250;28;20203;-76
2021/01/12 05:35:48;;;;;;;3.37;2.90;;;6.70;99.90;;;;;;5084427;28;20418;-76
2021/01/12 05:38:27;;;;;;;3.30;2.83;;;6.80;99.90;;;;;;5051714;28;20418;-76
2021/01/12 05:40:59;;;;;;;3.40;2.67;;;6.90;99.90;;;;;;5086105;28;20444;-76
2021/01/12 05:43:39;;;;;;;2.83;2.63;;;7.00;99.90;;;;;;5085357;28;20849;-76
2021/01/12 05:46:15;;;;;;;3.03;2.40;;;7.00;99.90;;;;;;5066057;28;20426;-76
2021/01/12 05:48:43;;;;;;;2.63;2.40;;;7.00;99.90;;;;;;5071587;28;20437;-76
2021/01/12 05:51:13;;;;;;;3.40;2.77;;;7.10;99.90;;;;;;5087976;28;20796;-76
2021/01/12 05:53:45;;;;;;;3.20;2.90;;;6.90;99.90;;;;;;5054263;28;20925;-76
2021/01/12 05:56:31;;;;;;;2.67;2.47;;;7.10;99.90;;;;;;5088554;28;20430;-76
2021/01/12 05:58:59;;;;;;;3.10;2.80;;;6.90;99.90;;;;;;5075904;28;20430;-75
2021/01/12 06:01:41;;;;;;;3.07;2.77;;;7.00;99.90;;;;;;5097696;28;20912;-76
2021/01/12 06:04:09;;;;;;;4.70;3.10;;;7.20;99.90;;;;;;5088703;28;20426;-76
2021/01/12 06:06:40;;;;;;;3.30;3.00;;;7.10;99.90;;;;;;5072042;28;20425;-77
2021/01/12 06:09:07;;;;;;;3.00;2.80;;;7.30;99.90;;;;;;5090060;28;20480;-77
2021/01/12 06:11:37;;;;;;;3.00;2.80;;;7.20;99.90;;;;;;5088447;28;20762;-77
2021/01/12 06:14:07;;;;;;;2.97;2.67;;;7.00;99.90;;;;;;5070847;28;20418;-77
2021/01/12 06:16:36;;;;;;;3.03;2.73;;;7.00;99.90;;;;;;5093562;28;20431;-77
2021/01/12 06:19:08;;;;;;;3.00;2.70;;;7.30;99.90;;;;;;5090287;28;20479;-77
2021/01/12 06:21:35;;;;;;;3.13;2.80;;;7.20;99.90;;;;;;5076080;28;20454;-77
2021/01/12 06:24:09;;;;;;;3.13;2.83;;;7.20;99.90;;;;;;5088901;28;20418;-77
2021/01/12 06:26:39;;;;;;;5.80;3.00;;;7.00;99.90;;;;;;5071488;28;20789;-77
2021/01/12 06:29:09;;;;;;;3.63;3.33;;;7.10;99.90;;;;;;5072300;28;20551;-77
2021/01/12 06:31:48;;;;;;;2.50;2.30;;;7.10;99.90;;;;;;5087764;28;20857;-77
2021/01/12 06:34:21;;;;;;;2.93;2.57;;;7.00;99.90;;;;;;5089092;28;20445;-77
2021/01/12 06:36:52;;;;;;;2.23;1.93;;;7.30;99.90;;;;;;5082484;28;20527;-76
2021/01/12 06:39:25;;;;;;;2.07;1.87;;;7.10;99.90;;;;;;5089574;28;20430;-77
2021/01/12 06:41:51;;;;;;;3.10;2.80;;;7.30;99.90;;;;;;5082985;28;20441;-76
2021/01/12 06:44:22;;;;;;;3.07;2.30;;;7.00;99.90;;;;;;5086095;28;20422;-76
2021/01/12 06:46:50;;;;;;;2.50;2.30;;;7.10;99.90;;;;;;5069368;28;20184;-76
2021/01/12 06:49:29;;;;;;;2.77;2.23;;;7.00;99.90;;;;;;5066484;28;20512;-76
2021/01/12 06:51:59;;;;;;;2.13;1.93;;;7.30;99.90;;;;;;5066298;28;20418;-76
2021/01/12 06:54:31;;;;;;;2.10;1.77;;;7.00;99.90;;;;;;5071078;28;20569;-76
2021/01/12 06:57:02;;;;;;;1.80;1.70;;;7.20;99.90;;;;;;5087857;28;20438;-76
2021/01/12 06:59:51;;;;;;;2.43;1.90;;;7.20;99.90;;;;;;5086548;28;20434;-76
2021/01/12 07:02:29;;;;;;;2.07;1.90;;;7.20;99.90;;;;;;5090840;28;20798;-76
2021/01/12 07:05:15;;;;;;;2.93;1.80;;;7.20;99.90;;;;;;5082744;28;20427;-75
2021/01/12 07:07:49;;;;;;;1.70;1.60;;;7.40;99.90;;;;;;5087934;28;20843;-76
2021/01/12 07:10:20;;;;;;;2.30;2.10;;;7.40;99.90;;;;;;5087412;28;20490;-75
2021/01/12 07:12:46;;;;;;;1.90;1.73;;;7.10;99.90;;;;;;5086471;28;20419;-75
2021/01/12 07:15:18;;;;;;;2.83;2.50;;;7.50;99.90;;;;;;5085144;28;20791;-78
2021/01/12 07:17:49;;;;;;;2.63;2.30;;;7.30;99.90;;;;;;5085001;28;20422;-77
2021/01/12 07:20:28;;;;;;;2.27;2.07;;;7.30;99.90;;;;;;5091917;28;20426;-77
2021/01/12 07:22:55;;;;;;;2.60;2.40;;;7.50;99.90;;;;;;5085974;28;20735;-77
2021/01/12 07:25:26;;;;;;;2.60;2.40;;;7.20;99.90;;;;;;5085046;28;20437;-77
2021/01/12 07:28:09;;;;;;;2.87;2.67;;;7.40;99.90;;;;;;5086924;28;20425;-78
2021/01/12 07:30:39;;;;;;;2.53;2.33;;;7.30;99.90;;;;;;5084381;28;20477;-78
2021/01/12 07:33:17;;;;;;;2.50;2.30;;;7.50;99.90;;;;;;5094289;28;20768;-77
2021/01/12 07:35:48;;;;;;;3.43;2.37;;;7.20;99.90;;;;;;5087253;28;20438;-78
2021/01/12 07:38:22;;;;;;;4.77;3.00;;;7.50;99.90;;;;;;5086378;28;20827;-77
2021/01/12 07:40:49;;;;;;;3.07;2.77;;;7.40;99.90;;;;;;5078622;28;20868;-77
2021/01/12 07:43:19;;;;;;;2.70;2.50;;;7.30;99.90;;;;;;5057535;28;20447;-77
2021/01/12 07:45:46;;;;;;;3.50;2.47;;;7.50;99.90;;;;;;5061840;28;20433;-77
2021/01/12 07:48:13;;;;;;;2.40;2.20;;;7.50;99.90;;;;;;5071352;28;20422;-78
2021/01/12 07:50:42;;;;;;;2.50;2.30;;;7.30;99.90;;;;;;5078851;28;20466;-77
2021/01/12 07:53:08;;;;;;;3.07;2.77;;;7.50;99.90;;;;;;5074781;28;20425;-77
2021/01/12 07:55:39;;;;;;;3.50;3.17;;;7.50;99.90;;;;;;5080731;28;20414;-77
2021/01/12 07:58:23;;;;;;;3.20;2.90;;;7.50;99.90;;;;;;5075908;28;20963;-77
2021/01/12 08:00:49;;;;;;;2.60;2.40;;;7.40;99.90;;;;;;5077517;28;20940;-78
2021/01/12 08:03:15;;;;;;;3.07;2.60;;;7.40;99.90;;;;;;5064395;28;20403;-77
2021/01/12 08:05:41;;;;;;;20.30;3.03;;;7.60;99.90;;;;;;5081663;28;20437;-77
2021/01/12 08:08:09;;;;;;;2.40;2.20;;;7.60;99.90;;;;;;5085587;28;20422;-78
2021/01/12 08:10:39;;;;;;;2.90;2.70;;;7.60;99.90;;;;;;5085030;28;20238;-77
2021/01/12 08:13:10;;;;;;;3.07;2.80;;;7.60;99.90;;;;;;5085980;28;20421;-77
2021/01/12 08:15:37;;;;;;;3.23;2.93;;;7.60;99.90;;;;;;5068150;28;20429;-77
2021/01/12 08:18:19;;;;;;;3.43;2.93;;;7.50;99.90;;;;;;5088021;28;20826;-77
2021/01/12 08:20:47;;;;;;;3.27;2.90;;;7.50;99.90;;;;;;5080346;28;21029;-77
2021/01/12 08:23:17;;;;;;;3.17;2.90;;;7.60;99.90;;;;;;5067808;28;20995;-78
2021/01/12 08:25:43;;;;;;;3.40;3.10;;;7.50;99.90;;;;;;5086635;28;20414;-77
2021/01/12 08:28:10;;;;;;;3.13;2.83;;;7.50;99.90;;;;;;5068437;28;20436;-77
2021/01/12 08:30:40;;;;;;;3.20;2.90;;;7.50;99.90;;;;;;5084458;28;20464;-77
2021/01/12 08:33:17;;;;;;;3.73;3.40;;;7.50;99.90;;;;;;5086529;28;20415;-77
2021/01/12 08:36:10;;;;;;;3.70;3.40;;;7.60;99.90;;;;;;5091986;28;20426;-77
2021/01/12 08:38:37;;;;;;;3.13;2.83;;;7.60;99.90;;;;;;5085196;28;20421;-77
2021/01/12 08:41:06;;;;;;;3.23;2.93;;;7.70;99.90;;;;;;5086697;28;20453;-78
2021/01/12 08:43:33;;;;;;;3.60;3.30;;;7.60;99.90;;;;;;5084364;28;20427;-78
2021/01/12 08:46:03;;;;;;;4.10;3.70;;;7.70;99.90;;;;;;5084211;28;20784;-78
2021/01/12 08:48:32;;;;;;;3.10;2.90;;;7.60;99.90;;;;;;5092350;28;20426;-77
2021/01/12 08:50:58;;;;;;;4.03;3.20;;;7.80;99.90;;;;;;5091433;28;20595;-77
2021/01/12 08:53:31;;;;;;;4.10;3.70;;;7.70;99.90;;;;;;5057139;28;20865;-77
2021/01/12 08:56:09;;;;;;;5.50;4.10;;;7.70;99.90;;;;;;5075565;28;20534;-78
2021/01/12 08:58:36;;;;;;;4.10;3.70;;;7.70;99.90;;;;;;5083795;28;20521;-76
2021/01/12 09:01:03;;;;;;;4.20;3.77;;;7.60;99.90;;;;;;5085473;28;21030;-76
2021/01/12 09:03:30;;;;;;;4.97;3.70;;;7.70;99.90;;;;;;5074224;28;21005;-76
2021/01/12 09:05:56;;;;;;;4.17;3.77;;;7.70;99.90;;;;;;5066017;28;20427;-76
2021/01/12 09:08:23;;;;;;;4.83;3.43;;;7.90;99.90;;;;;;5083518;28;20419;-76
2021/01/12 09:10:49;;;;;;;3.77;3.47;;;7.60;99.90;;;;;;5085727;28;20454;-76
2021/01/12 09:13:15;;;;;;;3.63;3.33;;;7.70;99.90;;;;;;5057271;28;20431;-75
2021/01/12 09:15:47;;;;;;;3.80;3.50;;;7.70;99.90;;;;;;5077358;28;20426;-76
2021/01/12 09:18:21;;;;;;;3.73;3.43;;;8.00;99.90;;;;;;5089635;28;20820;-75
2021/01/12 09:20:54;;;;;;;5.10;4.60;;;7.80;99.90;;;;;;5084209;28;20514;-75
2021/01/12 09:23:20;;;;;;;5.47;4.67;;;7.70;99.90;;;;;;5089080;28;20493;-76
2021/01/12 09:25:51;;;;;;;4.33;3.70;;;7.70;99.90;;;;;;5089254;28;20514;-76
2021/01/12 09:28:19;;;;;;;3.13;2.50;;;7.70;99.90;;;;;;5078163;28;20407;-76
2021/01/12 09:30:47;;;;;;;2.40;2.20;;;8.10;99.90;;;;;;5088407;28;20978;-76
2021/01/12 09:33:14;;;;;;;2.50;2.07;;;7.90;99.90;;;;;;5087292;28;20430;-75
2021/01/12 09:35:40;;;;;;;2.80;2.50;;;8.10;99.90;;;;;;5101765;28;21161;-75
2021/01/12 09:38:06;;;;;;;3.07;2.23;;;7.80;99.90;;;;;;5089502;28;20418;-75
2021/01/12 09:40:32;;;;;;;2.60;2.33;;;8.00;99.90;;;;;;5088359;28;20726;-75
2021/01/12 09:42:57;;;;;;;2.67;2.00;;;7.60;99.90;;;;;;5087874;28;20609;-75
2021/01/12 09:45:26;;;;;;;6.60;3.03;;;7.80;99.90;;;;;;5089418;28;20446;-75
2021/01/12 09:47:51;;;;;;;4.07;2.60;;;7.70;99.90;;;;;;5087733;28;20737;-76
2021/01/12 09:50:17;;;;;;;3.70;2.60;;;8.00;99.90;;;;;;5091242;28;20481;-75
2021/01/12 09:52:43;;;;;;;4.60;3.50;;;7.70;99.90;;;;;;5096340;28;20185;-75
2021/01/12 09:55:09;;;;;;;4.60;3.33;;;7.70;99.90;;;;;;5070917;28;20283;-76
2021/01/12 09:57:38;;;;;;;4.57;3.60;;;7.90;99.90;;;;;;5089069;28;20199;-75
2021/01/12 10:00:08;;;;;;;4.40;3.90;;;7.70;99.90;;;;;;5089506;28;20426;-76
2021/01/12 10:02:34;;;;;;;5.10;4.17;;;7.90;99.90;;;;;;5087416;28;20511;-75
2021/01/12 10:05:00;;;;;;;4.87;3.90;;;7.80;99.90;;;;;;5092941;28;20530;-75
2021/01/12 10:07:26;;;;;;;5.00;4.50;;;7.90;99.90;;;;;;5096907;28;20429;-76
2021/01/12 10:09:52;;;;;;;6.57;5.60;;;7.90;99.90;;;;;;5089037;28;20466;-76
2021/01/12 10:12:17;;;;;;;5.20;4.70;;;7.90;99.90;;;;;;5087634;28;20207;-75
2021/01/12 10:14:44;;;;;;;5.07;4.60;;;8.10;99.90;;;;;;5070105;28;20189;-75
2021/01/12 10:17:10;;;;;;;5.90;5.27;;;7.80;99.90;;;;;;5088862;28;20673;-75
2021/01/12 10:19:36;;;;;;;6.37;5.77;;;7.90;99.90;;;;;;5093909;28;20946;-76
2021/01/12 10:22:01;;;;;;;5.67;4.60;;;8.00;99.90;;;;;;5099032;28;20426;-75
2021/01/12 10:24:27;;;;;;;5.93;4.70;;;7.80;99.90;;;;;;5087149;28;20422;-75
2021/01/12 10:26:54;;;;;;;5.00;4.20;;;7.60;99.90;;;;;;5087652;28;20293;-76
2021/01/12 10:29:26;;;;;;;5.63;5.00;;;7.90;99.90;;;;;;5088628;28;20463;-76
2021/01/12 10:31:52;;;;;;;10.23;5.27;;;7.80;99.90;;;;;;5069847;28;20626;-76
2021/01/12 10:34:20;;;;;;;8.93;5.57;;;8.00;99.90;;;;;;5088041;28;20430;-76
2021/01/12 10:36:50;;;;;;;9.63;5.70;;;7.80;99.90;;;;;;5087170;28;20780;-75
2021/01/12 10:39:16;;;;;;;6.30;5.23;;;8.00;99.90;;;;;;5090237;28;20768;-75
2021/01/12 10:41:42;;;;;;;7.70;4.67;;;7.90;99.90;;;;;;5088605;28;20418;-75
2021/01/12 10:44:07;;;;;;;5.03;4.33;;;7.80;99.90;;;;;;5070044;28;20794;-75
2021/01/12 10:46:33;;;;;;;5.00;4.00;;;8.10;99.90;;;;;;5070598;28;20237;-75
2021/01/12 10:48:59;;;;;;;5.97;4.77;;;8.00;99.90;;;;;;5087145;28;20284;-76
2021/01/12 10:51:25;;;;;;;4.40;4.00;;;8.00;99.90;;;;;;5102330;28;20441;-75
2021/01/12 10:53:51;;;;;;;6.43;4.80;;;7.90;99.90;;;;;;5086520;28;20419;-76
2021/01/12 10:56:19;;;;;;;5.50;3.80;;;7.80;99.90;;;;;;5087305;28;20196;-75
2021/01/12 10:58:45;;;;;;;3.93;3.53;;;7.80;99.90;;;;;;5087954;28;20194;-75
2021/01/12 11:01:15;;;;;;;4.90;3.47;;;7.90;99.90;;;;;;5087204;28;20421;-75
2021/01/12 11:03:41;;;;;;;3.67;3.37;;;7.70;99.90;;;;;;5085724;28;20188;-75
2021/01/12 11:06:06;;;;;;;4.03;3.70;;;7.80;99.90;;;;;;5096063;28;20436;-75
2021/01/12 11:08:32;;;;;;;3.90;3.53;;;7.70;99.90;;;;;;5096478;28;20511;-76
2021/01/12 11:10:58;;;;;;;6.07;4.00;;;7.80;99.90;;;;;;5088145;28;20466;-75
2021/01/12 11:13:24;;;;;;;3.57;3.27;;;7.70;99.90;;;;;;5085792;28;20428;-76
2021/01/12 11:15:50;;;;;;;4.20;3.80;;;7.80;99.90;;;;;;5087492;28;20191;-75
2021/01/12 11:18:16;;;;;;;4.97;3.37;;;7.80;99.90;;;;;;5086230;28;20192;-76
2021/01/12 11:20:42;;;;;;;4.43;4.03;;;8.00;99.90;;;;;;5096013;28;20789;-75
2021/01/12 11:23:08;;;;;;;5.27;2.97;;;7.80;99.90;;;;;;5096766;28;20982;-76
2021/01/12 11:25:34;;;;;;;5.20;3.30;;;7.80;99.90;;;;;;5087441;28;20430;-75
2021/01/12 11:27:59;;;;;;;2.23;2.03;;;7.70;99.90;;;;;;5087599;28;20440;-76
2021/01/12 11:30:25;;;;;;;3.13;2.27;;;7.80;99.90;;;;;;5069221;28;20207;-75
2021/01/12 11:32:55;;;;;;;2.90;1.60;;;7.90;99.90;;;;;;5085519;28;20185;-76
2021/01/12 11:35:20;;;;;;;3.33;2.17;;;7.60;99.90;;;;;;5085527;28;20182;-75
2021/01/12 11:37:48;;;;;;;4.33;2.70;;;7.50;99.90;;;;;;5094105;28;20520;-75
2021/01/12 11:40:17;;;;;;;1.70;1.60;;;7.40;99.90;;;;;;5069217;28;20185;-75
2021/01/12 11:42:43;;;;;;;1.80;1.70;;;7.80;99.90;;;;;;5074912;28;20415;-75
2021/01/12 11:45:09;;;;;;;2.30;1.70;;;7.50;99.90;;;;;;5067834;28;20427;-75
2021/01/12 11:47:35;;;;;;;4.07;1.40;;;7.60;99.90;;;;;;5086272;28;20912;-75
2021/01/12 11:50:07;;;;;;;2.50;2.10;;;7.60;99.90;;;;;;5086943;28;20505;-75
2021/01/12 11:52:33;;;;;;;2.90;1.43;;;7.30;99.90;;;;;;5091807;28;20674;-75
2021/01/12 11:54:59;;;;;;;2.00;1.77;;;7.30;99.90;;;;;;5086300;28;20514;-75
2021/01/12 11:57:24;;;;;;;5.07;2.10;;;7.60;99.90;;;;;;5086919;28;20208;-75
2021/01/12 11:59:50;;;;;;;2.73;2.40;;;7.60;99.90;;;;;;5085728;28;20257;-75
2021/01/12 12:02:16;;;;;;;2.87;1.83;;;7.20;99.90;;;;;;5086820;28;20198;-75
2021/01/12 12:04:41;;;;;;;2.47;2.27;;;7.30;99.90;;;;;;5085806;28;20261;-76
2021/01/12 12:07:07;;;;;;;2.17;1.97;;;7.50;99.90;;;;;;5096199;28;20186;-75
2021/01/12 12:09:36;;;;;;;2.27;1.80;;;7.50;99.90;;;;;;5070222;28;20235;-75
2021/01/12 12:12:03;;;;;;;2.00;1.60;;;7.30;99.90;;;;;;5085257;28;20180;-75
2021/01/12 12:14:29;;;;;;;2.67;1.73;;;7.60;99.90;;;;;;5081787;28;20778;-75
2021/01/12 12:16:56;;;;;;;1.50;1.27;;;7.30;99.90;;;;;;5087026;28;20407;-75
2021/01/12 12:19:22;;;;;;;2.30;2.10;;;7.70;99.90;;;;;;5084999;28;20430;-75
2021/01/12 12:21:50;;;;;;;2.57;1.80;;;7.70;99.90;;;;;;5096344;28;20808;-75
2021/01/12 12:24:17;;;;;;;3.53;2.20;;;7.70;99.90;;;;;;5088646;28;20414;-76
2021/01/12 12:26:44;;;;;;;3.63;1.97;;;7.50;99.90;;;;;;5086446;28;20420;-76
2021/01/12 12:29:10;;;;;;;3.83;1.60;;;7.60;99.90;;;;;;5086476;28;21294;-75
2021/01/12 12:31:35;;;;;;;1.70;1.60;;;7.70;99.90;;;;;;5083699;28;20462;-75
2021/01/12 12:34:02;;;;;;;2.10;1.80;;;7.40;99.90;;;;;;5083914;28;20187;-75
2021/01/12 12:36:28;;;;;;;1.60;1.50;;;7.40;99.90;;;;;;5090598;28;20188;-75
2021/01/12 12:38:53;;;;;;;1.63;1.27;;;7.50;99.90;;;;;;5094956;28;20417;-75
2021/01/12 12:41:19;;;;;;;1.63;1.53;;;7.30;99.90;;;;;;5068093;28;20242;-75
2021/01/12 12:43:46;;;;;;;1.60;1.33;;;7.30;99.90;;;;;;5086035;28;20267;-75
2021/01/12 12:46:14;;;;;;;1.30;1.17;;;7.50;99.90;;;;;;5086524;28;20422;-75
2021/01/12 12:48:40;;;;;;;1.70;1.40;;;7.20;99.90;;;;;;5085298;28;20422;-75
2021/01/12 12:51:08;;;;;;;1.10;1.00;;;7.10;99.90;;;;;;5091120;28;20476;-75
2021/01/12 12:53:38;;;;;;;1.67;0.90;;;7.00;99.90;;;;;;5094361;28;20188;-76
2021/01/12 12:56:09;;;;;;;1.10;0.97;;;7.00;99.90;;;;;;5084053;28;20870;-76
2021/01/12 12:58:34;;;;;;;2.00;0.93;;;7.10;99.90;;;;;;5086166;28;20813;-75